createdAt,value
2022-12-11T00:02:08.401Z,67.39
2022-12-11T00:04:35.353Z,66.85
2022-12-11T00:07:02.454Z,66.90
2022-12-11T00:09:29.459Z,67.16
2022-12-11T00:11:56.729Z,67.65
2022-12-11T00:14:23.597Z,68.25
2022-12-11T00:16:51.051Z,68.44
2022-12-11T00:19:17.939Z,67.32
2022-12-11T00:21:45.101Z,66.73
2022-12-11T00:24:11.923Z,66.79
2022-12-11T00:26:39.254Z,67.17
2022-12-11T00:29:08.280Z,67.70
2022-12-11T00:31:35.525Z,68.34
2022-12-11T00:34:02.887Z,68.55
2022-12-11T00:36:29.764Z,67.56
2022-12-11T00:38:56.577Z,66.90
2022-12-11T00:41:23.666Z,66.85
2022-12-11T00:43:50.710Z,67.11
2022-12-11T00:46:17.887Z,67.67
2022-12-11T00:48:46.228Z,68.48
2022-12-11T00:51:13.100Z,68.76
2022-12-11T00:53:39.993Z,67.44
2022-12-11T00:56:14.421Z,67.06
2022-12-11T00:58:41.310Z,67.01
2022-12-11T01:01:09.710Z,67.34
2022-12-11T01:03:36.861Z,67.85
2022-12-11T01:06:04.033Z,68.48
2022-12-11T01:08:36.748Z,68.78
2022-12-11T04:35:45.981Z,85.53
2022-12-11T04:38:12.961Z,82.02
2022-12-11T04:40:39.817Z,78.72
2022-12-11T04:43:06.732Z,76.32
2022-12-11T04:45:33.721Z,75.24
2022-12-11T04:48:01.483Z,74.63
2022-12-11T04:50:28.533Z,74.38
2022-12-11T04:52:55.926Z,74.45
2022-12-11T04:58:07.760Z,71.92
2022-12-11T05:00:34.635Z,71.42
2022-12-11T05:03:01.695Z,71.62
2022-12-11T05:05:28.693Z,71.61
2022-12-11T05:07:55.648Z,71.86
2022-12-11T05:10:22.888Z,71.73
2022-12-11T05:12:49.981Z,70.49
2022-12-11T05:15:18.236Z,70.07
2022-12-11T05:17:45.124Z,70.08
2022-12-11T05:20:12.175Z,70.16
2022-12-11T05:22:39.572Z,70.60
2022-12-11T05:25:07.285Z,71.19
2022-12-11T05:27:34.597Z,70.94
2022-12-11T05:30:01.731Z,69.75
2022-12-11T05:32:28.775Z,69.23
2022-12-11T05:34:55.670Z,69.19
2022-12-11T05:37:22.566Z,69.52
2022-12-11T05:39:49.516Z,69.92
2022-12-11T05:42:16.405Z,70.43
2022-12-11T05:44:43.339Z,70.39
2022-12-11T05:47:10.172Z,69.35
2022-12-11T05:49:37.406Z,68.70
2022-12-11T05:52:04.619Z,68.58
2022-12-11T05:54:31.659Z,68.86
2022-12-11T05:56:58.590Z,69.33
2022-12-11T05:59:25.702Z,69.81
2022-12-11T06:01:52.719Z,69.79
2022-12-11T06:04:20.112Z,68.96
2022-12-11T06:06:47.018Z,68.45
2022-12-11T06:09:14.599Z,68.48
2022-12-11T06:11:41.563Z,68.97
2022-12-11T06:14:09.712Z,69.40
2022-12-11T06:16:36.637Z,69.94
2022-12-11T06:19:04.210Z,70.16
2022-12-11T06:21:31.990Z,68.92
2022-12-11T06:24:00.537Z,68.34
2022-12-11T06:26:28.183Z,68.16
2022-12-11T06:28:55.391Z,68.49
2022-12-11T06:31:23.191Z,68.91
2022-12-11T06:33:50.178Z,69.69
2022-12-11T06:36:18.890Z,69.67
2022-12-11T06:38:46.621Z,68.52
2022-12-11T06:41:14.651Z,68.04
2022-12-11T06:43:43.005Z,67.96
2022-12-11T06:46:15.087Z,68.35
2022-12-11T06:48:44.813Z,68.86
2022-12-11T06:51:13.804Z,69.45
2022-12-11T06:53:40.771Z,69.50
2022-12-11T06:56:09.584Z,68.25
2022-12-11T06:58:36.922Z,67.81
2022-12-11T07:01:04.401Z,67.81
2022-12-11T07:03:31.623Z,68.11
2022-12-11T07:06:02.410Z,68.58
2022-12-11T07:08:29.834Z,69.10
2022-12-11T07:11:05.656Z,69.21
2022-12-11T07:13:33.798Z,67.96
2022-12-11T07:16:02.117Z,67.57
2022-12-11T07:18:29.292Z,67.64
2022-12-11T07:20:59.318Z,67.94
2022-12-11T07:23:29.647Z,68.50
2022-12-11T07:25:56.673Z,69.17
2022-12-11T07:28:23.891Z,69.10
2022-12-11T07:30:50.966Z,68.01
2022-12-11T07:33:17.906Z,67.34
2022-12-11T07:35:44.851Z,67.25
2022-12-11T07:38:11.838Z,67.82
2022-12-11T07:40:38.873Z,68.16
2022-12-11T07:43:06.176Z,68.88
2022-12-11T07:45:33.628Z,69.09
2022-12-11T07:48:00.658Z,68.07
2022-12-11T07:50:27.560Z,67.45
2022-12-11T07:52:54.675Z,67.31
2022-12-11T07:55:21.530Z,67.62
2022-12-11T07:57:48.426Z,68.24
2022-12-11T08:00:15.806Z,68.78
2022-12-11T08:02:42.768Z,68.80
2022-12-11T08:05:10.219Z,67.60
2022-12-11T08:07:38.525Z,67.25
2022-12-11T08:10:05.912Z,67.16
2022-12-11T08:12:33.609Z,67.47
2022-12-11T08:15:00.606Z,68.00
2022-12-11T08:17:31.820Z,68.61
2022-12-11T08:20:00.952Z,68.79
2022-12-11T08:22:28.080Z,67.59
2022-12-11T08:24:54.944Z,67.09
2022-12-11T08:27:22.109Z,67.22
2022-12-11T08:29:49.792Z,67.90
2022-12-11T08:32:18.332Z,68.29
2022-12-11T08:34:45.829Z,69.06
2022-12-11T08:37:13.673Z,68.87
2022-12-11T08:39:40.930Z,67.74
2022-12-11T08:42:08.214Z,67.23
2022-12-11T08:44:37.334Z,67.01
2022-12-11T08:47:04.529Z,67.32
2022-12-11T08:49:34.627Z,67.81
2022-12-11T08:52:05.651Z,68.50
2022-12-11T08:54:32.970Z,68.53
2022-12-11T08:56:59.811Z,67.31
2022-12-11T08:59:26.713Z,66.98
2022-12-11T09:01:55.339Z,67.02
2022-12-11T09:04:23.302Z,67.32
2022-12-11T09:06:50.563Z,67.73
2022-12-11T09:09:17.539Z,68.19
2022-12-11T09:11:44.561Z,68.73
2022-12-11T09:14:11.452Z,68.60
2022-12-11T09:16:40.939Z,67.21
2022-12-11T09:19:09.209Z,66.41
2022-12-11T09:21:36.409Z,66.50
2022-12-11T09:24:04.111Z,67.08
2022-12-11T09:26:31.280Z,67.53
2022-12-11T09:28:58.589Z,68.23
2022-12-11T09:31:26.482Z,68.04
2022-12-11T09:33:58.733Z,66.91
2022-12-11T09:36:25.954Z,66.32
2022-12-11T09:38:52.914Z,66.46
2022-12-11T09:41:26.188Z,66.86
2022-12-11T09:44:13.576Z,67.52
2022-12-11T09:46:40.837Z,68.25
2022-12-11T09:49:20.720Z,67.70
2022-12-11T09:51:51.397Z,66.48
2022-12-11T09:54:18.462Z,66.32
2022-12-11T09:56:52.803Z,66.59
2022-12-11T09:59:46.138Z,66.91
2022-12-11T10:02:29.271Z,67.57
2022-12-11T10:05:24.351Z,68.28
2022-12-11T10:08:10.975Z,67.93
2022-12-11T10:10:50.992Z,66.33
2022-12-11T10:13:26.916Z,66.18
2022-12-11T10:16:04.278Z,66.77
2022-12-11T10:18:31.396Z,67.54
2022-12-11T10:21:01.408Z,68.18
2022-12-11T10:23:57.455Z,68.90
2022-12-11T10:26:24.587Z,68.29
2022-12-11T10:28:52.084Z,66.80
2022-12-11T10:31:19.848Z,66.47
2022-12-11T10:34:11.066Z,66.67
2022-12-11T10:36:38.979Z,67.20
2022-12-11T10:39:21.016Z,67.83
2022-12-11T10:41:52.419Z,68.63
2022-12-11T10:44:19.348Z,68.41
2022-12-11T10:46:48.049Z,67.34
2022-12-11T10:49:26.097Z,66.43
2022-12-11T10:51:55.970Z,66.43
2022-12-11T10:54:39.440Z,67.17
2022-12-11T10:57:07.877Z,67.45
2022-12-11T13:20:12.024Z,80.77
2022-12-11T13:22:48.512Z,77.49
2022-12-11T13:25:24.979Z,73.44
2022-12-11T13:27:52.432Z,71.04
2022-12-11T13:30:19.293Z,70.42
2022-12-11T13:33:06.105Z,69.49
2022-12-11T13:35:33.587Z,69.60
2022-12-11T13:38:08.507Z,69.60
2022-12-11T13:40:41.490Z,69.48
2022-12-11T13:43:19.610Z,67.58
2022-12-11T13:45:50.001Z,66.19
2022-12-11T13:48:42.834Z,65.85
2022-12-11T13:51:20.670Z,66.61
2022-12-11T13:53:47.614Z,67.13
2022-12-11T13:56:21.670Z,68.19
2022-12-11T13:58:48.964Z,68.04
2022-12-11T14:01:27.523Z,66.49
2022-12-11T14:03:56.936Z,66.06
2022-12-11T14:06:24.377Z,65.46
2022-12-11T14:08:53.752Z,66.20
2022-12-11T14:11:27.956Z,66.32
2022-12-11T14:13:56.442Z,66.84
2022-12-11T14:16:24.395Z,67.21
2022-12-11T14:18:51.389Z,66.50
2022-12-11T14:21:24.456Z,65.18
2022-12-11T14:23:53.467Z,65.14
2022-12-11T14:26:22.226Z,65.38
2022-12-11T14:28:49.235Z,65.49
2022-12-11T14:31:18.439Z,66.18
2022-12-11T14:33:54.439Z,66.80
2022-12-11T14:36:21.817Z,67.34
2022-12-11T14:39:02.212Z,66.98
2022-12-11T14:41:32.104Z,64.99
2022-12-11T14:43:59.929Z,64.12
2022-12-11T14:46:39.913Z,64.32
2022-12-11T14:49:17.637Z,64.81
2022-12-11T14:51:45.265Z,65.56
2022-12-11T14:54:41.476Z,66.48
2022-12-11T14:57:08.344Z,67.08
2022-12-11T14:59:40.878Z,65.68
2022-12-11T15:02:33.447Z,63.64
2022-12-11T15:05:18.437Z,63.20
2022-12-11T15:07:55.022Z,64.24
2022-12-11T15:10:41.304Z,64.31
2022-12-11T15:13:08.568Z,65.41
2022-12-11T15:15:45.084Z,66.14
2022-12-11T15:18:33.039Z,66.86
2022-12-11T15:21:01.434Z,65.99
2022-12-11T15:23:29.047Z,64.24
2022-12-11T15:25:58.009Z,64.36
2022-12-11T15:28:28.189Z,64.33
2022-12-11T15:30:57.167Z,64.71
2022-12-11T15:33:24.261Z,65.53
2022-12-11T15:36:02.017Z,65.90
2022-12-11T15:38:33.424Z,66.37
2022-12-11T15:41:00.616Z,66.38
2022-12-11T15:43:28.388Z,64.61
2022-12-11T15:45:55.682Z,64.01
2022-12-11T15:48:22.941Z,64.28
2022-12-11T15:50:50.092Z,64.69
2022-12-11T15:53:16.921Z,65.52
2022-12-11T21:49:13.041Z,69.84
2022-12-11T21:51:46.720Z,66.78
2022-12-11T21:54:16.747Z,65.07
2022-12-11T21:56:43.997Z,65.06
2022-12-11T21:59:11.488Z,65.56
2022-12-11T22:01:42.070Z,65.31
2022-12-11T22:04:09.906Z,65.75
2022-12-11T22:06:37.307Z,66.47
2022-12-11T22:09:05.730Z,66.14
2022-12-11T22:11:34.459Z,64.96
2022-12-11T22:14:01.682Z,64.23
2022-12-11T22:16:28.619Z,64.39
2022-12-11T22:18:55.528Z,64.74
2022-12-11T22:21:22.591Z,65.61
2022-12-11T22:23:49.610Z,66.46
2022-12-11T22:26:18.559Z,67.11
2022-12-11T22:28:45.465Z,66.34
2022-12-11T22:31:16.927Z,65.61
2022-12-11T22:33:44.033Z,64.60
2022-12-11T22:36:11.028Z,64.45
2022-12-11T22:38:39.932Z,65.29
2022-12-11T22:41:18.964Z,65.40
2022-12-11T22:43:49.516Z,65.55
2022-12-11T22:46:18.205Z,66.42
2022-12-11T22:48:45.242Z,66.10
2022-12-11T22:51:12.131Z,64.58
2022-12-11T22:53:39.356Z,64.16
2022-12-11T22:56:07.215Z,64.05
2022-12-11T22:58:35.091Z,64.64
2022-12-11T23:01:02.267Z,65.12
2022-12-11T23:03:29.302Z,65.87
2022-12-11T23:05:58.013Z,66.48
2022-12-11T23:08:28.031Z,66.49
2022-12-11T23:10:55.029Z,65.02
2022-12-11T23:13:22.585Z,64.15
2022-12-11T23:15:49.949Z,64.31
2022-12-11T23:18:16.825Z,64.60
2022-12-11T23:20:45.209Z,65.19
2022-12-11T23:23:12.082Z,65.56
2022-12-11T23:25:39.249Z,66.18
2022-12-11T23:28:06.254Z,66.14
2022-12-11T23:30:33.536Z,64.43
2022-12-11T23:33:00.420Z,63.89
2022-12-11T23:35:27.690Z,64.27
2022-12-11T23:37:54.879Z,64.54
2022-12-11T23:40:21.770Z,64.99
2022-12-11T23:42:48.724Z,65.57
2022-12-11T23:45:16.000Z,65.84
2022-12-11T23:47:42.927Z,66.44
2022-12-11T23:50:10.117Z,66.32
2022-12-11T23:52:36.950Z,64.19
2022-12-11T23:55:04.197Z,63.89
2022-12-11T23:57:31.029Z,64.15
2022-12-11T23:59:58.536Z,64.20
